sensor_id;sensor_type;location;lat;lon;timestamp;pressure;altitude;pressure_sealevel;temperature;humidity
61324;BME280;47203;48.428;11.974;2024-02-28T00:00:42;96558.16;;;10.90;47.69
61324;BME280;47203;48.428;11.974;2024-02-28T00:02:48;96552.88;;;10.85;47.59
61324;BME280;47203;48.428;11.974;2024-02-28T00:04:51;96557.91;;;10.81;47.69
61324;BME280;47203;48.428;11.974;2024-02-28T00:06:55;96555.00;;;10.77;47.69
61324;BME280;47203;48.428;11.974;2024-02-28T00:09:00;96556.63;;;10.73;47.89
61324;BME280;47203;48.428;11.974;2024-02-28T00:11:03;96556.63;;;10.73;47.72
61324;BME280;47203;48.428;11.974;2024-02-28T00:13:08;96557.13;;;10.70;47.80
61324;BME280;47203;48.428;11.974;2024-02-28T00:15:12;96559.25;;;10.68;47.91
61324;BME280;47203;48.428;11.974;2024-02-28T00:17:14;96565.06;;;10.65;47.74
61324;BME280;47203;48.428;11.974;2024-02-28T00:19:18;96560.06;;;10.63;47.89
61324;BME280;47203;48.428;11.974;2024-02-28T00:21:22;96556.91;;;10.61;47.67
61324;BME280;47203;48.428;11.974;2024-02-28T00:23:25;96558.25;;;10.59;47.67
61324;BME280;47203;48.428;11.974;2024-02-28T00:25:30;96558.78;;;10.56;47.67
61324;BME280;47203;48.428;11.974;2024-02-28T00:27:36;96553.78;;;10.54;47.74
61324;BME280;47203;48.428;11.974;2024-02-28T00:29:40;96549.03;;;10.51;47.71
61324;BME280;47203;48.428;11.974;2024-02-28T00:31:44;96564.81;;;10.51;47.69
61324;BME280;47203;48.428;11.974;2024-02-28T00:33:48;96559.31;;;10.47;47.70
61324;BME280;47203;48.428;11.974;2024-02-28T00:35:51;96561.19;;;10.47;47.66
61324;BME280;47203;48.428;11.974;2024-02-28T00:37:56;96564.31;;;10.44;47.65
61324;BME280;47203;48.428;11.974;2024-02-28T00:39:59;96569.84;;;10.42;47.71
61324;BME280;47203;48.428;11.974;2024-02-28T00:42:04;96559.34;;;10.37;47.68
61324;BME280;47203;48.428;11.974;2024-02-28T00:44:08;96566.47;;;10.37;47.83
61324;BME280;47203;48.428;11.974;2024-02-28T00:46:12;96569.84;;;10.32;47.78
61324;BME280;47203;48.428;11.974;2024-02-28T00:48:15;96568.53;;;10.29;47.89
61324;BME280;47203;48.428;11.974;2024-02-28T00:50:19;96562.47;;;10.29;47.82
61324;BME280;47203;48.428;11.974;2024-02-28T00:52:23;96573.81;;;10.29;47.79
61324;BME280;47203;48.428;11.974;2024-02-28T00:54:27;96580.38;;;10.27;47.60
61324;BME280;47203;48.428;11.974;2024-02-28T00:56:31;96584.84;;;10.26;47.66
61324;BME280;47203;48.428;11.974;2024-02-28T00:58:37;96587.47;;;10.21;47.89
61324;BME280;47203;48.428;11.974;2024-02-28T01:00:41;96586.97;;;10.19;47.98
61324;BME280;47203;48.428;11.974;2024-02-28T01:02:44;96589.84;;;10.18;47.92
61324;BME280;47203;48.428;11.974;2024-02-28T01:04:47;96593.53;;;10.17;47.83
61324;BME280;47203;48.428;11.974;2024-02-28T01:06:50;96589.31;;;10.16;47.84
61324;BME280;47203;48.428;11.974;2024-02-28T01:08:53;96599.34;;;10.13;47.84
61324;BME280;47203;48.428;11.974;2024-02-28T01:10:57;96595.13;;;10.12;47.91
61324;BME280;47203;48.428;11.974;2024-02-28T01:13:01;96608.53;;;10.11;48.00
61324;BME280;47203;48.428;11.974;2024-02-28T01:15:07;96623.75;;;10.09;47.98
61324;BME280;47203;48.428;11.974;2024-02-28T01:17:11;96620.34;;;10.08;47.94
61324;BME280;47203;48.428;11.974;2024-02-28T01:19:16;96625.38;;;10.05;48.14
61324;BME280;47203;48.428;11.974;2024-02-28T01:21:19;96625.63;;;10.03;48.07
61324;BME280;47203;48.428;11.974;2024-02-28T01:23:22;96634.81;;;10.01;47.99
61324;BME280;47203;48.428;11.974;2024-02-28T01:25:25;96631.66;;;9.99;48.04
61324;BME280;47203;48.428;11.974;2024-02-28T01:27:29;96641.38;;;9.98;47.95
61324;BME280;47203;48.428;11.974;2024-02-28T01:29:33;96645.88;;;9.98;48.04
61324;BME280;47203;48.428;11.974;2024-02-28T01:31:36;96641.91;;;9.95;48.01
61324;BME280;47203;48.428;11.974;2024-02-28T01:33:40;96647.19;;;9.95;48.01
61324;BME280;47203;48.428;11.974;2024-02-28T01:35:44;96648.22;;;9.94;48.00
61324;BME280;47203;48.428;11.974;2024-02-28T01:37:47;96651.09;;;9.92;48.27
61324;BME280;47203;48.428;11.974;2024-02-28T01:39:51;96650.84;;;9.89;48.04
61324;BME280;47203;48.428;11.974;2024-02-28T01:41:55;96660.03;;;9.86;48.19
61324;BME280;47203;48.428;11.974;2024-02-28T01:43:59;96653.47;;;9.84;48.22
61324;BME280;47203;48.428;11.974;2024-02-28T01:46:15;96656.63;;;9.81;48.30
61324;BME280;47203;48.428;11.974;2024-02-28T01:48:23;96658.19;;;9.82;48.33
61324;BME280;47203;48.428;11.974;2024-02-28T01:50:27;96665.81;;;9.83;48.31
61324;BME280;47203;48.428;11.974;2024-02-28T01:52:30;96665.56;;;9.85;48.37
61324;BME280;47203;48.428;11.974;2024-02-28T01:54:35;96668.19;;;9.85;48.49
61324;BME280;47203;48.428;11.974;2024-02-28T01:56:39;96664.53;;;9.86;48.49
61324;BME280;47203;48.428;11.974;2024-02-28T01:58:46;96670.81;;;9.85;48.50
61324;BME280;47203;48.428;11.974;2024-02-28T02:00:52;96670.56;;;9.86;48.46
61324;BME280;47203;48.428;11.974;2024-02-28T02:02:55;96668.44;;;9.88;48.51
61324;BME280;47203;48.428;11.974;2024-02-28T02:05:01;96671.06;;;9.88;48.42
61324;BME280;47203;48.428;11.974;2024-02-28T02:07:06;96676.06;;;9.90;48.53
61324;BME280;47203;48.428;11.974;2024-02-28T02:09:10;96674.78;;;9.92;48.40
61324;BME280;47203;48.428;11.974;2024-02-28T02:11:17;96667.94;;;9.91;48.36
61324;BME280;47203;48.428;11.974;2024-02-28T02:13:21;96664.81;;;9.94;48.42
61324;BME280;47203;48.428;11.974;2024-02-28T02:15:25;96669.25;;;9.94;48.57
61324;BME280;47203;48.428;11.974;2024-02-28T02:17:32;96673.19;;;9.96;48.46
61324;BME280;47203;48.428;11.974;2024-02-28T02:19:36;96672.94;;;9.98;48.39
61324;BME280;47203;48.428;11.974;2024-02-28T02:21:52;96678.47;;;9.96;48.38
61324;BME280;47203;48.428;11.974;2024-02-28T02:23:57;96676.34;;;9.99;48.55
61324;BME280;47203;48.428;11.974;2024-02-28T02:26:01;96680.31;;;10.01;48.45
61324;BME280;47203;48.428;11.974;2024-02-28T02:28:04;96680.31;;;10.01;48.59
61324;BME280;47203;48.428;11.974;2024-02-28T02:30:09;96686.38;;;10.02;48.62
61324;BME280;47203;48.428;11.974;2024-02-28T02:32:13;96682.16;;;10.01;48.56
61324;BME280;47203;48.428;11.974;2024-02-28T02:34:16;96679.00;;;9.93;48.54
61324;BME280;47203;48.428;11.974;2024-02-28T02:36:19;96685.56;;;10.01;48.37
61324;BME280;47203;48.428;11.974;2024-02-28T02:38:23;96679.78;;;10.04;48.49
61324;BME280;47203;48.428;11.974;2024-02-28T02:40:27;96681.38;;;10.05;48.66
61324;BME280;47203;48.428;11.974;2024-02-28T02:42:32;96698.22;;;10.09;48.40
61324;BME280;47203;48.428;11.974;2024-02-28T02:44:35;96693.47;;;10.11;48.42
61324;BME280;47203;48.428;11.974;2024-02-28T02:46:39;96690.84;;;10.11;48.46
61324;BME280;47203;48.428;11.974;2024-02-28T02:48:42;96690.84;;;10.11;48.41
61324;BME280;47203;48.428;11.974;2024-02-28T02:50:46;96689.28;;;10.10;48.48
61324;BME280;47203;48.428;11.974;2024-02-28T02:52:49;96686.38;;;10.12;48.55
61324;BME280;47203;48.428;11.974;2024-02-28T02:54:53;96674.00;;;10.12;48.60
61324;BME280;47203;48.428;11.974;2024-02-28T02:57:00;96679.53;;;10.11;48.47
61324;BME280;47203;48.428;11.974;2024-02-28T02:59:03;96685.56;;;10.11;48.26
61324;BME280;47203;48.428;11.974;2024-02-28T03:01:07;96683.75;;;10.12;48.39
61324;BME280;47203;48.428;11.974;2024-02-28T03:03:11;96680.31;;;10.11;48.33
61324;BME280;47203;48.428;11.974;2024-02-28T03:05:13;96687.69;;;10.09;48.25
61324;BME280;47203;48.428;11.974;2024-02-28T03:07:17;96681.63;;;10.09;48.26
61324;BME280;47203;48.428;11.974;2024-02-28T03:09:21;96680.84;;;10.08;48.31
61324;BME280;47203;48.428;11.974;2024-02-28T03:11:24;96685.59;;;10.06;48.29
61324;BME280;47203;48.428;11.974;2024-02-28T03:13:29;96685.03;;;10.04;48.24
61324;BME280;47203;48.428;11.974;2024-02-28T03:15:32;96691.38;;;10.03;48.20
61324;BME280;47203;48.428;11.974;2024-02-28T03:17:36;96688.47;;;10.00;48.41
61324;BME280;47203;48.428;11.974;2024-02-28T03:19:39;96693.97;;;9.98;48.43
61324;BME280;47203;48.428;11.974;2024-02-28T03:21:43;96699.75;;;10.00;48.49
61324;BME280;47203;48.428;11.974;2024-02-28T03:23:46;96702.13;;;9.96;48.43
61324;BME280;47203;48.428;11.974;2024-02-28T03:25:50;96696.09;;;9.96;48.35
61324;BME280;47203;48.428;11.974;2024-02-28T03:27:53;96696.88;;;9.96;48.37
61324;BME280;47203;48.428;11.974;2024-02-28T03:29:58;96692.91;;;9.94;48.49
61324;BME280;47203;48.428;11.974;2024-02-28T03:32:04;96688.97;;;9.91;48.29
61324;BME280;47203;48.428;11.974;2024-02-28T03:34:07;96698.69;;;9.91;48.44
61324;BME280;47203;48.428;11.974;2024-02-28T03:36:10;96705.00;;;9.90;48.44
61324;BME280;47203;48.428;11.974;2024-02-28T03:38:13;96707.63;;;9.90;48.42
61324;BME280;47203;48.428;11.974;2024-02-28T03:40:17;96712.88;;;9.90;48.30
61324;BME280;47203;48.428;11.974;2024-02-28T03:42:21;96706.59;;;9.91;48.61
61324;BME280;47203;48.428;11.974;2024-02-28T03:44:24;96707.34;;;9.91;48.59
61324;BME280;47203;48.428;11.974;2024-02-28T03:46:34;96722.34;;;9.91;48.56
61324;BME280;47203;48.428;11.974;2024-02-28T03:48:37;96709.75;;;9.93;48.62
61324;BME280;47203;48.428;11.974;2024-02-28T03:50:40;96724.97;;;9.86;48.62
61324;BME280;47203;48.428;11.974;2024-02-28T03:52:43;96721.84;;;9.94;48.61
61324;BME280;47203;48.428;11.974;2024-02-28T03:54:46;96726.56;;;9.97;48.62
61324;BME280;47203;48.428;11.974;2024-02-28T03:56:49;96726.31;;;9.99;48.57
61324;BME280;47203;48.428;11.974;2024-02-28T03:58:53;96732.13;;;10.01;48.54
61324;BME280;47203;48.428;11.974;2024-02-28T04:00:56;96732.91;;;10.01;48.57
61324;BME280;47203;48.428;11.974;2024-02-28T04:03:01;96746.84;;;10.02;48.75
61324;BME280;47203;48.428;11.974;2024-02-28T04:05:06;96746.34;;;10.05;48.86
61324;BME280;47203;48.428;11.974;2024-02-28T04:07:10;96749.47;;;10.07;48.80
61324;BME280;47203;48.428;11.974;2024-02-28T04:09:14;96743.97;;;10.08;48.74
61324;BME280;47203;48.428;11.974;2024-02-28T04:11:18;96745.53;;;10.09;48.70
61324;BME280;47203;48.428;11.974;2024-02-28T04:13:22;96744.50;;;10.10;48.71
61324;BME280;47203;48.428;11.974;2024-02-28T04:15:25;96741.06;;;10.10;48.68
61324;BME280;47203;48.428;11.974;2024-02-28T04:17:28;96754.22;;;10.10;48.76
61324;BME280;47203;48.428;11.974;2024-02-28T04:19:34;96757.09;;;10.08;48.72
61324;BME280;47203;48.428;11.974;2024-02-28T04:21:39;96763.97;;;10.09;48.63
61324;BME280;47203;48.428;11.974;2024-02-28T04:23:43;96759.22;;;10.06;48.72
61324;BME280;47203;48.428;11.974;2024-02-28T04:25:47;96759.75;;;10.03;48.75
61324;BME280;47203;48.428;11.974;2024-02-28T04:27:50;96756.56;;;10.01;48.77
61324;BME280;47203;48.428;11.974;2024-02-28T04:29:54;96753.69;;;9.98;48.86
61324;BME280;47203;48.428;11.974;2024-02-28T04:31:57;96762.09;;;9.94;48.84
61324;BME280;47203;48.428;11.974;2024-02-28T04:34:01;96760.50;;;9.93;48.71
61324;BME280;47203;48.428;11.974;2024-02-28T04:36:07;96769.94;;;9.89;48.99
61324;BME280;47203;48.428;11.974;2024-02-28T04:38:10;96773.88;;;9.87;48.78
61324;BME280;47203;48.428;11.974;2024-02-28T04:40:14;96775.19;;;9.84;48.88
61324;BME280;47203;48.428;11.974;2024-02-28T04:42:17;96779.13;;;9.82;48.74
61324;BME280;47203;48.428;11.974;2024-02-28T04:44:21;96778.06;;;9.77;48.95
61324;BME280;47203;48.428;11.974;2024-02-28T04:46:24;96779.34;;;9.75;48.88
61324;BME280;47203;48.428;11.974;2024-02-28T04:48:28;96782.22;;;9.73;48.97
61324;BME280;47203;48.428;11.974;2024-02-28T04:50:31;96789.59;;;9.71;49.23
61324;BME280;47203;48.428;11.974;2024-02-28T04:52:36;96791.66;;;9.69;49.01
61324;BME280;47203;48.428;11.974;2024-02-28T04:54:40;96786.41;;;9.69;49.02
61324;BME280;47203;48.428;11.974;2024-02-28T04:56:43;96798.78;;;9.69;48.93
61324;BME280;47203;48.428;11.974;2024-02-28T04:58:48;96799.03;;;9.67;49.07
61324;BME280;47203;48.428;11.974;2024-02-28T05:00:52;96803.50;;;9.67;49.12
61324;BME280;47203;48.428;11.974;2024-02-28T05:02:55;96808.75;;;9.67;49.14
61324;BME280;47203;48.428;11.974;2024-02-28T05:04:59;96807.19;;;9.66;49.15
61324;BME280;47203;48.428;11.974;2024-02-28T05:07:03;96812.44;;;9.66;49.09
61324;BME280;47203;48.428;11.974;2024-02-28T05:09:11;96817.13;;;9.64;49.01
61324;BME280;47203;48.428;11.974;2024-02-28T05:11:13;96815.31;;;9.64;48.97
61324;BME280;47203;48.428;11.974;2024-02-28T05:13:17;96813.72;;;9.63;49.06
61324;BME280;47203;48.428;11.974;2024-02-28T05:15:20;96814.75;;;9.62;49.04
61324;BME280;47203;48.428;11.974;2024-02-28T05:17:25;96809.50;;;9.62;49.10
61324;BME280;47203;48.428;11.974;2024-02-28T05:19:29;96812.94;;;9.63;48.97
61324;BME280;47203;48.428;11.974;2024-02-28T05:21:40;96808.19;;;9.59;49.12
61324;BME280;47203;48.428;11.974;2024-02-28T05:23:44;96814.75;;;9.62;49.25
61324;BME280;47203;48.428;11.974;2024-02-28T05:25:50;96818.72;;;9.59;49.27
61324;BME280;47203;48.428;11.974;2024-02-28T05:27:53;96827.38;;;9.60;49.21
61324;BME280;47203;48.428;11.974;2024-02-28T05:29:57;96820.53;;;9.59;49.27
61324;BME280;47203;48.428;11.974;2024-02-28T05:32:03;96833.66;;;9.59;49.14
61324;BME280;47203;48.428;11.974;2024-02-28T05:34:07;96826.34;;;9.61;49.30
61324;BME280;47203;48.428;11.974;2024-02-28T05:36:11;96837.88;;;9.60;49.29
61324;BME280;47203;48.428;11.974;2024-02-28T05:38:15;96836.03;;;9.60;49.19
61324;BME280;47203;48.428;11.974;2024-02-28T05:40:19;96841.03;;;9.62;49.42
61324;BME280;47203;48.428;11.974;2024-02-28T05:42:24;96846.03;;;9.64;49.43
61324;BME280;47203;48.428;11.974;2024-02-28T05:44:27;96846.84;;;9.64;49.46
61324;BME280;47203;48.428;11.974;2024-02-28T05:46:32;96852.63;;;9.66;49.39
61324;BME280;47203;48.428;11.974;2024-02-28T05:48:35;96856.06;;;9.67;49.46
61324;BME280;47203;48.428;11.974;2024-02-28T05:50:39;96864.47;;;9.69;49.27
61324;BME280;47203;48.428;11.974;2024-02-28T05:52:43;96868.19;;;9.73;49.48
61324;BME280;47203;48.428;11.974;2024-02-28T05:54:46;96871.84;;;9.72;49.56
61324;BME280;47203;48.428;11.974;2024-02-28T05:56:50;96874.22;;;9.73;49.32
61324;BME280;47203;48.428;11.974;2024-02-28T05:58:56;96880.53;;;9.72;49.43
61324;BME280;47203;48.428;11.974;2024-02-28T06:01:01;96891.59;;;9.74;49.40
61324;BME280;47203;48.428;11.974;2024-02-28T06:03:04;96887.38;;;9.73;49.40
61324;BME280;47203;48.428;11.974;2024-02-28T06:05:08;96885.28;;;9.75;49.37
61324;BME280;47203;48.428;11.974;2024-02-28T06:07:12;96892.38;;;9.75;49.26
61324;BME280;47203;48.428;11.974;2024-02-28T06:09:15;96886.84;;;9.76;49.48
61324;BME280;47203;48.428;11.974;2024-02-28T06:11:18;96897.94;;;9.78;49.61
61324;BME280;47203;48.428;11.974;2024-02-28T06:13:21;96897.66;;;9.80;49.65
61324;BME280;47203;48.428;11.974;2024-02-28T06:15:26;96891.09;;;9.83;49.53
61324;BME280;47203;48.428;11.974;2024-02-28T06:17:29;96892.44;;;9.85;49.59
61324;BME280;47203;48.428;11.974;2024-02-28T06:19:33;96902.69;;;9.87;49.69
61324;BME280;47203;48.428;11.974;2024-02-28T06:21:36;96907.44;;;9.90;49.67
61324;BME280;47203;48.428;11.974;2024-02-28T06:23:40;96916.91;;;9.91;49.60
61324;BME280;47203;48.428;11.974;2024-02-28T06:25:43;96920.88;;;9.93;49.63
61324;BME280;47203;48.428;11.974;2024-02-28T06:27:47;96912.47;;;9.96;49.56
61324;BME280;47203;48.428;11.974;2024-02-28T06:29:51;96915.38;;;10.00;49.61
61324;BME280;47203;48.428;11.974;2024-02-28T06:31:56;96923.03;;;10.02;49.78
61324;BME280;47203;48.428;11.974;2024-02-28T06:33:58;96926.72;;;10.06;49.65
61324;BME280;47203;48.428;11.974;2024-02-28T06:36:02;96935.16;;;10.08;49.57
61324;BME280;47203;48.428;11.974;2024-02-28T06:38:06;96932.28;;;10.09;49.53
61324;BME280;47203;48.428;11.974;2024-02-28T06:40:11;96932.53;;;10.08;49.47
61324;BME280;47203;48.428;11.974;2024-02-28T06:42:14;96928.84;;;10.09;49.60
61324;BME280;47203;48.428;11.974;2024-02-28T06:44:18;96932.78;;;10.11;49.63
61324;BME280;47203;48.428;11.974;2024-02-28T06:46:22;96935.97;;;10.13;49.50
61324;BME280;47203;48.428;11.974;2024-02-28T06:48:28;96943.06;;;10.13;49.46
61324;BME280;47203;48.428;11.974;2024-02-28T06:50:31;96938.09;;;10.17;49.46
61324;BME280;47203;48.428;11.974;2024-02-28T06:52:34;96945.72;;;10.18;49.67
61324;BME280;47203;48.428;11.974;2024-02-28T06:54:37;96948.88;;;10.20;49.65
61324;BME280;47203;48.428;11.974;2024-02-28T06:56:40;96955.47;;;10.23;49.44
61324;BME280;47203;48.428;11.974;2024-02-28T06:58:42;96965.75;;;10.24;49.73
61324;BME280;47203;48.428;11.974;2024-02-28T07:00:47;96967.34;;;10.25;49.65
61324;BME280;47203;48.428;11.974;2024-02-28T07:02:55;96965.22;;;10.27;49.57
61324;BME280;47203;48.428;11.974;2024-02-28T07:05:01;96975.50;;;10.29;49.70
61324;BME280;47203;48.428;11.974;2024-02-28T07:07:03;96965.53;;;10.31;49.59
61324;BME280;47203;48.428;11.974;2024-02-28T07:09:08;96966.06;;;10.33;49.53
61324;BME280;47203;48.428;11.974;2024-02-28T07:11:14;96967.69;;;10.34;49.66
61324;BME280;47203;48.428;11.974;2024-02-28T07:13:17;96971.38;;;10.38;49.61
61324;BME280;47203;48.428;11.974;2024-02-28T07:15:21;96975.84;;;10.38;49.50
61324;BME280;47203;48.428;11.974;2024-02-28T07:17:24;96972.94;;;10.39;49.41
61324;BME280;47203;48.428;11.974;2024-02-28T07:19:28;96973.75;;;10.40;49.50
61324;BME280;47203;48.428;11.974;2024-02-28T07:21:32;96969.53;;;10.39;49.59
61324;BME280;47203;48.428;11.974;2024-02-28T07:23:39;96975.31;;;10.41;49.73
61324;BME280;47203;48.428;11.974;2024-02-28T07:25:42;96974.81;;;10.44;49.59
61324;BME280;47203;48.428;11.974;2024-02-28T07:27:48;96978.00;;;10.46;49.66
61324;BME280;47203;48.428;11.974;2024-02-28T07:29:52;96977.72;;;10.47;49.76
61324;BME280;47203;48.428;11.974;2024-02-28T07:31:56;96977.22;;;10.51;49.88
61324;BME280;47203;48.428;11.974;2024-02-28T07:33:59;96970.66;;;10.53;49.63
61324;BME280;47203;48.428;11.974;2024-02-28T07:36:03;96971.72;;;10.57;49.67
61324;BME280;47203;48.428;11.974;2024-02-28T07:38:08;96974.63;;;10.61;49.62
61324;BME280;47203;48.428;11.974;2024-02-28T07:40:12;96974.38;;;10.62;49.73
61324;BME280;47203;48.428;11.974;2024-02-28T07:42:16;96969.66;;;10.64;49.74
61324;BME280;47203;48.428;11.974;2024-02-28T07:44:20;96968.31;;;10.67;49.75
61324;BME280;47203;48.428;11.974;2024-02-28T07:46:23;96973.06;;;10.70;49.82
61324;BME280;47203;48.428;11.974;2024-02-28T07:48:27;96978.88;;;10.72;49.69
61324;BME280;47203;48.428;11.974;2024-02-28T07:50:29;96981.00;;;10.75;49.62
61324;BME280;47203;48.428;11.974;2024-02-28T07:52:33;96977.06;;;10.78;49.61
61324;BME280;47203;48.428;11.974;2024-02-28T07:54:41;96976.81;;;10.79;49.71
61324;BME280;47203;48.428;11.974;2024-02-28T07:56:45;96977.88;;;10.83;49.73
61324;BME280;47203;48.428;11.974;2024-02-28T07:58:49;96975.50;;;10.87;49.65
61324;BME280;47203;48.428;11.974;2024-02-28T08:00:53;96983.91;;;10.89;49.66
61324;BME280;47203;48.428;11.974;2024-02-28T08:02:56;96985.00;;;10.93;49.53
61324;BME280;47203;48.428;11.974;2024-02-28T08:05:00;96982.09;;;10.95;49.64
61324;BME280;47203;48.428;11.974;2024-02-28T08:07:04;96991.31;;;10.97;49.67
61324;BME280;47203;48.428;11.974;2024-02-28T08:09:08;96989.25;;;10.99;49.67
61324;BME280;47203;48.428;11.974;2024-02-28T08:11:16;96988.44;;;10.99;49.66
61324;BME280;47203;48.428;11.974;2024-02-28T08:13:21;96985.53;;;11.00;49.74
61324;BME280;47203;48.428;11.974;2024-02-28T08:15:23;96990.53;;;11.02;49.79
61324;BME280;47203;48.428;11.974;2024-02-28T08:17:27;96993.47;;;11.06;49.74
61324;BME280;47203;48.428;11.974;2024-02-28T08:19:30;96995.28;;;11.00;49.76
61324;BME280;47203;48.428;11.974;2024-02-28T08:21:36;96999.00;;;11.09;49.61
61324;BME280;47203;48.428;11.974;2024-02-28T08:23:40;96995.31;;;11.15;49.63
61324;BME280;47203;48.428;11.974;2024-02-28T08:25:45;97004.28;;;11.20;49.70
61324;BME280;47203;48.428;11.974;2024-02-28T08:27:50;97000.06;;;11.24;49.64
61324;BME280;47203;48.428;11.974;2024-02-28T08:29:54;97005.63;;;11.27;49.73
61324;BME280;47203;48.428;11.974;2024-02-28T08:31:57;97003.25;;;11.31;49.48
61324;BME280;47203;48.428;11.974;2024-02-28T08:34:01;97005.34;;;11.34;49.63
61324;BME280;47203;48.428;11.974;2024-02-28T08:36:07;97012.75;;;11.37;49.66
61324;BME280;47203;48.428;11.974;2024-02-28T08:38:11;97010.66;;;11.39;49.68
61324;BME280;47203;48.428;11.974;2024-02-28T08:40:14;97016.19;;;11.43;49.53
61324;BME280;47203;48.428;11.974;2024-02-28T08:42:18;97016.72;;;11.45;49.48
61324;BME280;47203;48.428;11.974;2024-02-28T08:44:24;97013.56;;;11.48;49.57
61324;BME280;47203;48.428;11.974;2024-02-28T08:46:27;97015.13;;;11.49;49.47
61324;BME280;47203;48.428;11.974;2024-02-28T08:48:31;97020.69;;;11.52;49.37
61324;BME280;47203;48.428;11.974;2024-02-28T08:50:34;97018.56;;;11.55;49.53
61324;BME280;47203;48.428;11.974;2024-02-28T08:52:38;97026.19;;;11.56;49.51
61324;BME280;47203;48.428;11.974;2024-02-28T08:54:42;97035.44;;;11.59;49.47
61324;BME280;47203;48.428;11.974;2024-02-28T08:56:46;97041.22;;;11.61;49.42
61324;BME280;47203;48.428;11.974;2024-02-28T08:58:57;97040.19;;;11.62;49.32
61324;BME280;47203;48.428;11.974;2024-02-28T09:01:02;97042.56;;;11.63;49.42
61324;BME280;47203;48.428;11.974;2024-02-28T09:03:06;97039.66;;;11.65;49.41
61324;BME280;47203;48.428;11.974;2024-02-28T09:05:09;97044.41;;;11.68;49.44
61324;BME280;47203;48.428;11.974;2024-02-28T09:07:13;97051.81;;;11.71;49.32
61324;BME280;47203;48.428;11.974;2024-02-28T09:09:19;97045.47;;;11.72;49.41
61324;BME280;47203;48.428;11.974;2024-02-28T09:11:25;97044.66;;;11.77;49.50
61324;BME280;47203;48.428;11.974;2024-02-28T09:13:30;97042.56;;;11.79;49.46
61324;BME280;47203;48.428;11.974;2024-02-28T09:15:34;97049.19;;;11.81;49.40
61324;BME280;47203;48.428;11.974;2024-02-28T09:17:39;97043.63;;;11.83;49.33
61324;BME280;47203;48.428;11.974;2024-02-28T09:19:43;97047.56;;;11.85;49.24
61324;BME280;47203;48.428;11.974;2024-02-28T09:21:47;97048.91;;;11.88;49.24
61324;BME280;47203;48.428;11.974;2024-02-28T09:23:51;97046.53;;;11.92;49.12
61324;BME280;47203;48.428;11.974;2024-02-28T09:25:54;97042.88;;;11.98;49.22
61324;BME280;47203;48.428;11.974;2024-02-28T09:27:58;97049.19;;;12.02;49.19
61324;BME280;47203;48.428;11.974;2024-02-28T09:30:03;97055.50;;;12.06;49.35
61324;BME280;47203;48.428;11.974;2024-02-28T09:32:07;97055.50;;;12.11;49.13
61324;BME280;47203;48.428;11.974;2024-02-28T09:34:12;97056.03;;;12.13;49.19
61324;BME280;47203;48.428;11.974;2024-02-28T09:36:16;97056.31;;;12.17;49.00
61324;BME280;47203;48.428;11.974;2024-02-28T09:38:19;97070.00;;;12.19;48.95
61324;BME280;47203;48.428;11.974;2024-02-28T09:40:24;97064.47;;;12.20;49.06
61324;BME280;47203;48.428;11.974;2024-02-28T09:42:27;97067.66;;;12.22;49.01
61324;BME280;47203;48.428;11.974;2024-02-28T09:44:31;97071.63;;;12.25;48.93
61324;BME280;47203;48.428;11.974;2024-02-28T09:46:35;97072.13;;;12.27;49.05
61324;BME280;47203;48.428;11.974;2024-02-28T09:48:40;97073.44;;;12.30;49.04
61324;BME280;47203;48.428;11.974;2024-02-28T09:50:47;97080.28;;;12.31;48.91
61324;BME280;47203;48.428;11.974;2024-02-28T09:52:50;97082.94;;;12.36;48.94
61324;BME280;47203;48.428;11.974;2024-02-28T09:55:07;97081.63;;;12.38;48.78
61324;BME280;47203;48.428;11.974;2024-02-28T09:57:11;97085.31;;;12.43;48.68
61324;BME280;47203;48.428;11.974;2024-02-28T09:59:18;97081.88;;;12.42;48.71
61324;BME280;47203;48.428;11.974;2024-02-28T10:01:23;97081.59;;;12.44;48.83
61324;BME280;47203;48.428;11.974;2024-02-28T10:03:30;97092.44;;;12.42;48.60
61324;BME280;47203;48.428;11.974;2024-02-28T10:05:35;97088.47;;;12.45;48.59
61324;BME280;47203;48.428;11.974;2024-02-28T10:07:40;97097.16;;;12.45;48.53
61324;BME280;47203;48.428;11.974;2024-02-28T10:09:45;97092.69;;;12.46;48.45
61324;BME280;47203;48.428;11.974;2024-02-28T10:11:50;97087.41;;;12.46;48.42
61324;BME280;47203;48.428;11.974;2024-02-28T10:13:54;97090.06;;;12.46;48.43
61324;BME280;47203;48.428;11.974;2024-02-28T10:15:58;97091.63;;;12.47;48.57
61324;BME280;47203;48.428;11.974;2024-02-28T10:18:02;97095.06;;;12.47;48.50
61324;BME280;47203;48.428;11.974;2024-02-28T10:20:07;97097.72;;;12.47;48.41
61324;BME280;47203;48.428;11.974;2024-02-28T10:22:12;97096.63;;;12.48;48.45
61324;BME280;47203;48.428;11.974;2024-02-28T10:24:17;97105.09;;;12.50;48.44
61324;BME280;47203;48.428;11.974;2024-02-28T10:26:19;97106.94;;;12.50;48.32
61324;BME280;47203;48.428;11.974;2024-02-28T10:28:23;97102.47;;;12.50;48.47
61324;BME280;47203;48.428;11.974;2024-02-28T10:30:27;97103.22;;;12.51;48.33
61324;BME280;47203;48.428;11.974;2024-02-28T10:32:31;97103.22;;;12.51;48.34
61324;BME280;47203;48.428;11.974;2024-02-28T10:34:37;97104.28;;;12.50;48.32
61324;BME280;47203;48.428;11.974;2024-02-28T10:36:43;97099.00;;;12.50;48.39
61324;BME280;47203;48.428;11.974;2024-02-28T10:38:48;97111.97;;;12.51;48.40
61324;BME280;47203;48.428;11.974;2024-02-28T10:40:53;97103.50;;;12.49;48.35
61324;BME280;47203;48.428;11.974;2024-02-28T10:42:57;97105.09;;;12.50;48.06
61324;BME280;47203;48.428;11.974;2024-02-28T10:45:04;97105.38;;;12.49;48.28
61324;BME280;47203;48.428;11.974;2024-02-28T10:47:23;97101.66;;;12.50;48.31
61324;BME280;47203;48.428;11.974;2024-02-28T10:49:27;97110.09;;;12.52;48.41
61324;BME280;47203;48.428;11.974;2024-02-28T10:51:34;97105.88;;;12.51;48.24